sensor_id;sensor_type;location;lat;lon;timestamp;temperature;humidity
43894;DHT22;29556;50.846;4.442;2022-08-14T00:00:43;21.60;64.40
43894;DHT22;29556;50.846;4.442;2022-08-14T00:03:28;21.60;64.70
43894;DHT22;29556;50.846;4.442;2022-08-14T00:06:04;21.60;64.70
43894;DHT22;29556;50.846;4.442;2022-08-14T00:08:30;21.60;64.80
43894;DHT22;29556;50.846;4.442;2022-08-14T00:10:56;21.60;64.90
43894;DHT22;29556;50.846;4.442;2022-08-14T00:13:25;21.50;65.00
43894;DHT22;29556;50.846;4.442;2022-08-14T00:15:57;21.50;65.00
43894;DHT22;29556;50.846;4.442;2022-08-14T00:18:25;21.50;65.10
43894;DHT22;29556;50.846;4.442;2022-08-14T00:20:51;21.40;64.90
43894;DHT22;29556;50.846;4.442;2022-08-14T00:23:21;21.40;64.90
43894;DHT22;29556;50.846;4.442;2022-08-14T00:25:52;21.40;64.80
43894;DHT22;29556;50.846;4.442;2022-08-14T00:28:18;21.40;64.90
43894;DHT22;29556;50.846;4.442;2022-08-14T00:30:46;21.40;65.10
43894;DHT22;29556;50.846;4.442;2022-08-14T00:33:12;21.30;64.80
43894;DHT22;29556;50.846;4.442;2022-08-14T00:35:38;21.40;65.00
43894;DHT22;29556;50.846;4.442;2022-08-14T00:38:03;21.40;65.20
43894;DHT22;29556;50.846;4.442;2022-08-14T00:40:30;21.30;65.50
43894;DHT22;29556;50.846;4.442;2022-08-14T00:42:56;21.30;65.70
43894;DHT22;29556;50.846;4.442;2022-08-14T00:45:23;21.30;66.10
43894;DHT22;29556;50.846;4.442;2022-08-14T00:47:50;21.30;66.20
43894;DHT22;29556;50.846;4.442;2022-08-14T00:50:21;21.30;66.40
43894;DHT22;29556;50.846;4.442;2022-08-14T00:52:51;21.20;67.20
43894;DHT22;29556;50.846;4.442;2022-08-14T00:55:37;21.20;66.70
43894;DHT22;29556;50.846;4.442;2022-08-14T00:58:06;21.20;66.90
43894;DHT22;29556;50.846;4.442;2022-08-14T01:00:51;21.10;66.90
43894;DHT22;29556;50.846;4.442;2022-08-14T01:03:20;21.10;67.20
43894;DHT22;29556;50.846;4.442;2022-08-14T01:05:48;21.10;67.50
43894;DHT22;29556;50.846;4.442;2022-08-14T01:08:27;21.10;67.80
43894;DHT22;29556;50.846;4.442;2022-08-14T01:10:55;21.10;67.80
43894;DHT22;29556;50.846;4.442;2022-08-14T01:13:29;21.00;67.70
43894;DHT22;29556;50.846;4.442;2022-08-14T01:15:58;21.00;67.90
43894;DHT22;29556;50.846;4.442;2022-08-14T01:18:26;21.00;68.00
43894;DHT22;29556;50.846;4.442;2022-08-14T01:21:20;20.90;68.20
43894;DHT22;29556;50.846;4.442;2022-08-14T01:23:52;20.90;68.30
43894;DHT22;29556;50.846;4.442;2022-08-14T01:26:21;20.90;68.30
43894;DHT22;29556;50.846;4.442;2022-08-14T01:28:50;20.90;68.20
43894;DHT22;29556;50.846;4.442;2022-08-14T01:31:23;20.80;68.10
43894;DHT22;29556;50.846;4.442;2022-08-14T01:33:52;20.80;68.10
43894;DHT22;29556;50.846;4.442;2022-08-14T01:36:19;20.80;68.20
43894;DHT22;29556;50.846;4.442;2022-08-14T01:38:50;20.80;68.30
43894;DHT22;29556;50.846;4.442;2022-08-14T01:41:18;20.80;68.20
43894;DHT22;29556;50.846;4.442;2022-08-14T01:43:51;20.80;68.20
43894;DHT22;29556;50.846;4.442;2022-08-14T01:46:31;20.70;68.20
43894;DHT22;29556;50.846;4.442;2022-08-14T01:48:59;20.70;68.60
43894;DHT22;29556;50.846;4.442;2022-08-14T01:51:29;20.60;68.50
43894;DHT22;29556;50.846;4.442;2022-08-14T01:53:58;20.70;68.60
43894;DHT22;29556;50.846;4.442;2022-08-14T01:56:27;20.60;68.50
43894;DHT22;29556;50.846;4.442;2022-08-14T01:59:20;20.60;68.30
43894;DHT22;29556;50.846;4.442;2022-08-14T02:01:54;20.60;68.20
43894;DHT22;29556;50.846;4.442;2022-08-14T02:04:34;20.50;68.30
43894;DHT22;29556;50.846;4.442;2022-08-14T02:07:08;20.50;68.20
43894;DHT22;29556;50.846;4.442;2022-08-14T02:09:36;20.50;68.10
43894;DHT22;29556;50.846;4.442;2022-08-14T02:12:06;20.50;68.20
43894;DHT22;29556;50.846;4.442;2022-08-14T02:14:38;20.50;68.20
43894;DHT22;29556;50.846;4.442;2022-08-14T02:17:04;20.40;68.10
43894;DHT22;29556;50.846;4.442;2022-08-14T02:19:34;20.40;68.20
43894;DHT22;29556;50.846;4.442;2022-08-14T02:22:03;20.40;68.30
43894;DHT22;29556;50.846;4.442;2022-08-14T02:24:32;20.40;68.40
43894;DHT22;29556;50.846;4.442;2022-08-14T02:26:59;20.40;68.50
43894;DHT22;29556;50.846;4.442;2022-08-14T02:29:27;20.40;68.50
43894;DHT22;29556;50.846;4.442;2022-08-14T02:31:56;20.30;68.50
43894;DHT22;29556;50.846;4.442;2022-08-14T02:34:32;20.30;68.50
43894;DHT22;29556;50.846;4.442;2022-08-14T02:37:09;20.30;68.70
43894;DHT22;29556;50.846;4.442;2022-08-14T02:39:44;20.30;69.10
43894;DHT22;29556;50.846;4.442;2022-08-14T02:42:13;20.20;69.10
43894;DHT22;29556;50.846;4.442;2022-08-14T02:44:40;20.20;69.20
43894;DHT22;29556;50.846;4.442;2022-08-14T02:47:06;20.20;69.20
43894;DHT22;29556;50.846;4.442;2022-08-14T02:49:33;20.10;69.10
43894;DHT22;29556;50.846;4.442;2022-08-14T02:52:00;20.10;69.00
43894;DHT22;29556;50.846;4.442;2022-08-14T02:54:28;20.10;69.10
43894;DHT22;29556;50.846;4.442;2022-08-14T02:56:55;20.10;69.20
43894;DHT22;29556;50.846;4.442;2022-08-14T02:59:23;20.10;69.10
43894;DHT22;29556;50.846;4.442;2022-08-14T03:01:49;20.10;69.10
43894;DHT22;29556;50.846;4.442;2022-08-14T03:04:15;20.00;69.00
43894;DHT22;29556;50.846;4.442;2022-08-14T03:06:41;20.00;69.10
43894;DHT22;29556;50.846;4.442;2022-08-14T03:09:08;20.00;69.30
43894;DHT22;29556;50.846;4.442;2022-08-14T03:11:37;20.00;69.40
43894;DHT22;29556;50.846;4.442;2022-08-14T03:14:04;20.00;69.60
43894;DHT22;29556;50.846;4.442;2022-08-14T03:16:30;20.00;69.70
43894;DHT22;29556;50.846;4.442;2022-08-14T03:19:00;19.90;69.70
43894;DHT22;29556;50.846;4.442;2022-08-14T03:21:27;19.90;69.30
43894;DHT22;29556;50.846;4.442;2022-08-14T03:23:58;19.90;69.10
43894;DHT22;29556;50.846;4.442;2022-08-14T03:26:41;19.90;69.20
43894;DHT22;29556;50.846;4.442;2022-08-14T03:29:11;19.80;69.20
43894;DHT22;29556;50.846;4.442;2022-08-14T03:31:37;19.80;69.20
43894;DHT22;29556;50.846;4.442;2022-08-14T03:34:07;19.80;69.10
43894;DHT22;29556;50.846;4.442;2022-08-14T03:36:35;19.80;69.20
43894;DHT22;29556;50.846;4.442;2022-08-14T03:39:05;19.80;70.10
43894;DHT22;29556;50.846;4.442;2022-08-14T03:41:31;19.80;69.40
43894;DHT22;29556;50.846;4.442;2022-08-14T03:44:07;19.70;69.50
43894;DHT22;29556;50.846;4.442;2022-08-14T03:46:35;19.80;69.70
43894;DHT22;29556;50.846;4.442;2022-08-14T03:49:02;19.70;69.70
43894;DHT22;29556;50.846;4.442;2022-08-14T03:51:31;19.70;69.90
43894;DHT22;29556;50.846;4.442;2022-08-14T03:53:59;19.70;69.90
43894;DHT22;29556;50.846;4.442;2022-08-14T03:56:26;19.70;69.90
43894;DHT22;29556;50.846;4.442;2022-08-14T03:58:58;19.70;70.80
43894;DHT22;29556;50.846;4.442;2022-08-14T04:01:25;19.60;70.00
43894;DHT22;29556;50.846;4.442;2022-08-14T04:03:54;19.60;70.20
43894;DHT22;29556;50.846;4.442;2022-08-14T04:06:23;19.60;70.20
43894;DHT22;29556;50.846;4.442;2022-08-14T04:08:49;19.60;70.40
43894;DHT22;29556;50.846;4.442;2022-08-14T04:11:16;19.60;69.70
43894;DHT22;29556;50.846;4.442;2022-08-14T04:13:48;19.60;69.70
43894;DHT22;29556;50.846;4.442;2022-08-14T04:16:19;19.50;69.80
43894;DHT22;29556;50.846;4.442;2022-08-14T04:18:49;19.50;69.80
43894;DHT22;29556;50.846;4.442;2022-08-14T04:21:15;19.50;70.50
43894;DHT22;29556;50.846;4.442;2022-08-14T04:23:44;19.40;69.70
43894;DHT22;29556;50.846;4.442;2022-08-14T04:26:12;19.40;69.90
43894;DHT22;29556;50.846;4.442;2022-08-14T04:28:39;19.40;70.00
43894;DHT22;29556;50.846;4.442;2022-08-14T04:31:07;19.40;70.10
43894;DHT22;29556;50.846;4.442;2022-08-14T04:33:33;19.40;70.30
43894;DHT22;29556;50.846;4.442;2022-08-14T04:36:00;19.30;70.30
43894;DHT22;29556;50.846;4.442;2022-08-14T04:38:26;19.30;70.40
43894;DHT22;29556;50.846;4.442;2022-08-14T04:41:10;19.30;70.50
43894;DHT22;29556;50.846;4.442;2022-08-14T04:43:55;19.30;70.50
43894;DHT22;29556;50.846;4.442;2022-08-14T04:46:23;19.30;70.50
43894;DHT22;29556;50.846;4.442;2022-08-14T04:48:50;19.30;70.50
43894;DHT22;29556;50.846;4.442;2022-08-14T04:51:18;19.30;70.50
43894;DHT22;29556;50.846;4.442;2022-08-14T04:53:47;19.20;70.20
43894;DHT22;29556;50.846;4.442;2022-08-14T04:56:15;19.20;70.20
43894;DHT22;29556;50.846;4.442;2022-08-14T04:58:41;19.30;70.50
43894;DHT22;29556;50.846;4.442;2022-08-14T05:01:09;19.30;70.60
43894;DHT22;29556;50.846;4.442;2022-08-14T05:03:36;19.20;70.50
43894;DHT22;29556;50.846;4.442;2022-08-14T05:06:07;19.20;70.40
43894;DHT22;29556;50.846;4.442;2022-08-14T05:08:34;19.20;70.30
43894;DHT22;29556;50.846;4.442;2022-08-14T05:11:02;19.20;70.30
43894;DHT22;29556;50.846;4.442;2022-08-14T05:13:33;19.30;70.50
43894;DHT22;29556;50.846;4.442;2022-08-14T05:16:05;19.30;69.70
43894;DHT22;29556;50.846;4.442;2022-08-14T05:18:35;19.30;70.00
43894;DHT22;29556;50.846;4.442;2022-08-14T05:21:07;19.30;70.00
43894;DHT22;29556;50.846;4.442;2022-08-14T05:23:37;19.30;70.10
43894;DHT22;29556;50.846;4.442;2022-08-14T05:26:05;19.20;70.20
43894;DHT22;29556;50.846;4.442;2022-08-14T05:28:43;19.30;70.40
43894;DHT22;29556;50.846;4.442;2022-08-14T05:31:13;19.30;70.50
43894;DHT22;29556;50.846;4.442;2022-08-14T05:33:43;19.30;70.60
43894;DHT22;29556;50.846;4.442;2022-08-14T05:36:10;19.30;70.80
43894;DHT22;29556;50.846;4.442;2022-08-14T05:38:42;19.30;70.80
43894;DHT22;29556;50.846;4.442;2022-08-14T05:41:11;19.30;70.90
43894;DHT22;29556;50.846;4.442;2022-08-14T05:43:42;19.30;71.20
43894;DHT22;29556;50.846;4.442;2022-08-14T05:46:20;19.40;71.40
43894;DHT22;29556;50.846;4.442;2022-08-14T05:48:53;19.40;71.50
43894;DHT22;29556;50.846;4.442;2022-08-14T05:51:20;19.40;71.60
43894;DHT22;29556;50.846;4.442;2022-08-14T05:53:46;19.40;71.80
43894;DHT22;29556;50.846;4.442;2022-08-14T05:56:15;19.40;72.20
43894;DHT22;29556;50.846;4.442;2022-08-14T05:58:40;19.40;72.90
43894;DHT22;29556;50.846;4.442;2022-08-14T06:01:06;19.40;72.50
43894;DHT22;29556;50.846;4.442;2022-08-14T06:03:34;19.50;72.50
43894;DHT22;29556;50.846;4.442;2022-08-14T06:06:01;19.60;72.70
43894;DHT22;29556;50.846;4.442;2022-08-14T06:08:29;19.60;72.90
43894;DHT22;29556;50.846;4.442;2022-08-14T06:10:58;19.60;72.90
43894;DHT22;29556;50.846;4.442;2022-08-14T06:13:53;19.60;72.90
43894;DHT22;29556;50.846;4.442;2022-08-14T06:16:19;19.60;73.00
43894;DHT22;29556;50.846;4.442;2022-08-14T06:18:46;19.70;73.20
43894;DHT22;29556;50.846;4.442;2022-08-14T06:21:17;19.70;73.30
43894;DHT22;29556;50.846;4.442;2022-08-14T06:23:43;19.70;73.40
43894;DHT22;29556;50.846;4.442;2022-08-14T06:26:09;19.80;73.40
43894;DHT22;29556;50.846;4.442;2022-08-14T06:28:35;19.80;73.40
43894;DHT22;29556;50.846;4.442;2022-08-14T06:31:01;19.80;73.50
43894;DHT22;29556;50.846;4.442;2022-08-14T06:33:27;19.90;74.30
43894;DHT22;29556;50.846;4.442;2022-08-14T06:35:54;19.90;73.50
43894;DHT22;29556;50.846;4.442;2022-08-14T06:38:22;19.90;73.40
43894;DHT22;29556;50.846;4.442;2022-08-14T06:40:51;20.00;73.30
43894;DHT22;29556;50.846;4.442;2022-08-14T06:43:17;20.00;73.20
43894;DHT22;29556;50.846;4.442;2022-08-14T06:45:45;20.10;73.80
43894;DHT22;29556;50.846;4.442;2022-08-14T06:48:22;20.20;73.10
43894;DHT22;29556;50.846;4.442;2022-08-14T06:50:49;20.20;73.00
43894;DHT22;29556;50.846;4.442;2022-08-14T06:53:16;20.20;72.90
43894;DHT22;29556;50.846;4.442;2022-08-14T06:56:05;20.30;72.90
43894;DHT22;29556;50.846;4.442;2022-08-14T06:58:33;20.40;72.70
43894;DHT22;29556;50.846;4.442;2022-08-14T07:00:59;20.50;72.60
43894;DHT22;29556;50.846;4.442;2022-08-14T07:03:43;20.50;72.30
43894;DHT22;29556;50.846;4.442;2022-08-14T07:06:27;20.60;71.90
43894;DHT22;29556;50.846;4.442;2022-08-14T07:08:57;20.70;71.40
43894;DHT22;29556;50.846;4.442;2022-08-14T07:11:25;20.70;71.50
43894;DHT22;29556;50.846;4.442;2022-08-14T07:13:50;20.70;67.50
43894;DHT22;29556;50.846;4.442;2022-08-14T07:16:16;20.90;68.30
43894;DHT22;29556;50.846;4.442;2022-08-14T07:18:49;21.00;68.20
43894;DHT22;29556;50.846;4.442;2022-08-14T07:21:17;21.10;67.60
43894;DHT22;29556;50.846;4.442;2022-08-14T07:23:42;21.20;67.00
43894;DHT22;29556;50.846;4.442;2022-08-14T07:26:08;21.30;66.40
43894;DHT22;29556;50.846;4.442;2022-08-14T07:28:37;21.40;66.60
43894;DHT22;29556;50.846;4.442;2022-08-14T07:31:08;21.50;66.40
43894;DHT22;29556;50.846;4.442;2022-08-14T07:33:38;21.60;66.10
43894;DHT22;29556;50.846;4.442;2022-08-14T07:36:06;21.70;65.80
43894;DHT22;29556;50.846;4.442;2022-08-14T07:38:34;21.70;66.20
43894;DHT22;29556;50.846;4.442;2022-08-14T07:41:02;21.80;65.50
43894;DHT22;29556;50.846;4.442;2022-08-14T07:43:44;21.90;64.80
43894;DHT22;29556;50.846;4.442;2022-08-14T07:46:16;22.00;64.10
43894;DHT22;29556;50.846;4.442;2022-08-14T07:48:41;22.10;62.80
43894;DHT22;29556;50.846;4.442;2022-08-14T07:51:09;22.20;62.90
43894;DHT22;29556;50.846;4.442;2022-08-14T07:53:38;22.30;63.00
43894;DHT22;29556;50.846;4.442;2022-08-14T07:56:09;22.40;62.00
43894;DHT22;29556;50.846;4.442;2022-08-14T07:58:35;22.50;62.50
43894;DHT22;29556;50.846;4.442;2022-08-14T08:01:02;22.60;61.90
43894;DHT22;29556;50.846;4.442;2022-08-14T08:03:32;22.60;61.80
43894;DHT22;29556;50.846;4.442;2022-08-14T08:06:00;22.70;62.10
43894;DHT22;29556;50.846;4.442;2022-08-14T08:08:28;22.80;60.80
43894;DHT22;29556;50.846;4.442;2022-08-14T08:11:00;22.90;60.90
43894;DHT22;29556;50.846;4.442;2022-08-14T08:13:26;23.00;60.70
43894;DHT22;29556;50.846;4.442;2022-08-14T08:15:56;23.00;59.90
43894;DHT22;29556;50.846;4.442;2022-08-14T08:18:22;23.10;59.40
43894;DHT22;29556;50.846;4.442;2022-08-14T08:20:51;23.30;58.50
43894;DHT22;29556;50.846;4.442;2022-08-14T08:23:19;23.40;58.60
43894;DHT22;29556;50.846;4.442;2022-08-14T08:25:47;23.50;57.90
43894;DHT22;29556;50.846;4.442;2022-08-14T08:28:18;23.70;57.60
43894;DHT22;29556;50.846;4.442;2022-08-14T08:30:57;23.80;57.40
43894;DHT22;29556;50.846;4.442;2022-08-14T08:33:25;23.90;56.80
43894;DHT22;29556;50.846;4.442;2022-08-14T08:35:53;24.00;56.70
43894;DHT22;29556;50.846;4.442;2022-08-14T08:38:21;24.20;56.60
43894;DHT22;29556;50.846;4.442;2022-08-14T08:40:49;24.30;56.40
43894;DHT22;29556;50.846;4.442;2022-08-14T08:45:55;24.70;55.20
43894;DHT22;29556;50.846;4.442;2022-08-14T08:48:23;24.80;54.40
43894;DHT22;29556;50.846;4.442;2022-08-14T08:50:54;24.90;53.70
43894;DHT22;29556;50.846;4.442;2022-08-14T08:53:20;25.00;53.80
43894;DHT22;29556;50.846;4.442;2022-08-14T08:55:46;25.00;53.80
43894;DHT22;29556;50.846;4.442;2022-08-14T08:58:14;25.00;53.70
43894;DHT22;29556;50.846;4.442;2022-08-14T09:00:44;25.10;53.70
43894;DHT22;29556;50.846;4.442;2022-08-14T09:03:13;25.10;53.70
43894;DHT22;29556;50.846;4.442;2022-08-14T09:05:51;25.20;53.30
43894;DHT22;29556;50.846;4.442;2022-08-14T09:08:20;25.30;53.40
43894;DHT22;29556;50.846;4.442;2022-08-14T09:10:46;25.30;53.20
43894;DHT22;29556;50.846;4.442;2022-08-14T09:13:13;25.30;53.20
43894;DHT22;29556;50.846;4.442;2022-08-14T09:15:41;25.40;53.00
43894;DHT22;29556;50.846;4.442;2022-08-14T09:18:08;25.40;52.80
43894;DHT22;29556;50.846;4.442;2022-08-14T09:20:34;25.40;52.80
43894;DHT22;29556;50.846;4.442;2022-08-14T09:23:01;25.40;52.50
43894;DHT22;29556;50.846;4.442;2022-08-14T09:25:32;25.50;52.40
43894;DHT22;29556;50.846;4.442;2022-08-14T09:27:58;25.50;52.30
43894;DHT22;29556;50.846;4.442;2022-08-14T09:30:23;25.50;52.30
43894;DHT22;29556;50.846;4.442;2022-08-14T09:47:04;25.70;51.90
43894;DHT22;29556;50.846;4.442;2022-08-14T09:49:33;25.80;51.70
43894;DHT22;29556;50.846;4.442;2022-08-14T09:52:25;25.80;51.60
43894;DHT22;29556;50.846;4.442;2022-08-14T09:54:53;25.90;51.60
43894;DHT22;29556;50.846;4.442;2022-08-14T09:57:29;25.90;51.90
43894;DHT22;29556;50.846;4.442;2022-08-14T09:59:56;26.00;51.90
43894;DHT22;29556;50.846;4.442;2022-08-14T10:02:27;26.10;51.50
43894;DHT22;29556;50.846;4.442;2022-08-14T10:05:08;26.20;51.30
43894;DHT22;29556;50.846;4.442;2022-08-14T10:07:49;26.40;50.80
43894;DHT22;29556;50.846;4.442;2022-08-14T10:10:27;26.50;51.10
43894;DHT22;29556;50.846;4.442;2022-08-14T10:12:53;26.60;50.80
43894;DHT22;29556;50.846;4.442;2022-08-14T10:15:22;26.60;50.80
43894;DHT22;29556;50.846;4.442;2022-08-14T10:18:00;26.70;50.70
43894;DHT22;29556;50.846;4.442;2022-08-14T10:20:35;26.80;50.10
43894;DHT22;29556;50.846;4.442;2022-08-14T10:23:38;26.90;49.90
43894;DHT22;29556;50.846;4.442;2022-08-14T10:26:09;27.00;49.60
43894;DHT22;29556;50.846;4.442;2022-08-14T10:28:51;27.00;49.10
43894;DHT22;29556;50.846;4.442;2022-08-14T10:31:26;27.00;48.80
43894;DHT22;29556;50.846;4.442;2022-08-14T10:33:59;27.00;48.50
43894;DHT22;29556;50.846;4.442;2022-08-14T10:36:26;27.00;48.00
43894;DHT22;29556;50.846;4.442;2022-08-14T10:38:56;27.00;48.20
43894;DHT22;29556;50.846;4.442;2022-08-14T10:41:38;27.00;48.00
43894;DHT22;29556;50.846;4.442;2022-08-14T10:44:17;27.00;47.30
43894;DHT22;29556;50.846;4.442;2022-08-14T10:46:54;27.00;47.10
43894;DHT22;29556;50.846;4.442;2022-08-14T10:49:24;27.00;46.90
43894;DHT22;29556;50.846;4.442;2022-08-14T10:52:10;27.00;46.70
43894;DHT22;29556;50.846;4.442;2022-08-14T10:54:46;27.10;45.80
43894;DHT22;29556;50.846;4.442;2022-08-14T10:57:32;27.10;45.20
43894;DHT22;29556;50.846;4.442;2022-08-14T11:00:24;27.00;44.70
43894;DHT22;29556;50.846;4.442;2022-08-14T11:08:06;27.10;43.90
43894;DHT22;29556;50.846;4.442;2022-08-14T11:10:45;27.20;43.80
43894;DHT22;29556;50.846;4.442;2022-08-14T11:13:19;27.20;43.30
43894;DHT22;29556;50.846;4.442;2022-08-14T11:15:47;27.30;43.40
43894;DHT22;29556;50.846;4.442;2022-08-14T11:18:27;27.30;42.30
43894;DHT22;29556;50.846;4.442;2022-08-14T11:20:58;27.30;41.90
43894;DHT22;29556;50.846;4.442;2022-08-14T11:23:32;27.30;41.70
43894;DHT22;29556;50.846;4.442;2022-08-14T11:26:25;27.40;41.10
43894;DHT22;29556;50.846;4.442;2022-08-14T11:28:56;27.40;41.30
43894;DHT22;29556;50.846;4.442;2022-08-14T11:31:33;27.30;41.20
43894;DHT22;29556;50.846;4.442;2022-08-14T11:34:08;27.40;41.30
43894;DHT22;29556;50.846;4.442;2022-08-14T11:36:38;27.30;41.20
43894;DHT22;29556;50.846;4.442;2022-08-14T11:39:05;27.30;41.10
43894;DHT22;29556;50.846;4.442;2022-08-14T11:41:35;27.40;41.00
43894;DHT22;29556;50.846;4.442;2022-08-14T11:44:03;27.40;41.40
43894;DHT22;29556;50.846;4.442;2022-08-14T11:46:29;27.50;40.90
43894;DHT22;29556;50.846;4.442;2022-08-14T11:48:56;27.50;40.90
43894;DHT22;29556;50.846;4.442;2022-08-14T11:51:24;27.50;40.10
43894;DHT22;29556;50.846;4.442;2022-08-14T11:54:00;27.60;40.30
43894;DHT22;29556;50.846;4.442;2022-08-14T11:56:36;27.70;38.20
43894;DHT22;29556;50.846;4.442;2022-08-14T11:59:06;27.70;39.00
43894;DHT22;29556;50.846;4.442;2022-08-14T12:01:36;27.70;39.40
43894;DHT22;29556;50.846;4.442;2022-08-14T12:04:14;27.60;39.60
43894;DHT22;29556;50.846;4.442;2022-08-14T12:06:52;27.70;40.20
43894;DHT22;29556;50.846;4.442;2022-08-14T12:09:30;27.60;38.90
43894;DHT22;29556;50.846;4.442;2022-08-14T12:11:58;27.70;39.10
43894;DHT22;29556;50.846;4.442;2022-08-14T12:14:24;27.80;39.40
43894;DHT22;29556;50.846;4.442;2022-08-14T12:17:09;27.80;38.20
43894;DHT22;29556;50.846;4.442;2022-08-14T12:19:58;27.80;37.80
43894;DHT22;29556;50.846;4.442;2022-08-14T12:22:41;27.90;38.00
43894;DHT22;29556;50.846;4.442;2022-08-14T12:25:18;28.10;38.50
43894;DHT22;29556;50.846;4.442;2022-08-14T12:27:46;28.10;38.70
43894;DHT22;29556;50.846;4.442;2022-08-14T12:30:25;28.10;38.10
43894;DHT22;29556;50.846;4.442;2022-08-14T12:32:53;28.30;37.50
43894;DHT22;29556;50.846;4.442;2022-08-14T12:35:22;28.30;37.70
43894;DHT22;29556;50.846;4.442;2022-08-14T12:37:51;28.40;37.50
43894;DHT22;29556;50.846;4.442;2022-08-14T12:40:18;28.50;37.30
43894;DHT22;29556;50.846;4.442;2022-08-14T12:42:49;28.50;37.60
43894;DHT22;29556;50.846;4.442;2022-08-14T12:45:16;28.60;37.20
43894;DHT22;29556;50.846;4.442;2022-08-14T12:47:46;28.60;36.90
43894;DHT22;29556;50.846;4.442;2022-08-14T12:50:11;28.70;36.70
43894;DHT22;29556;50.846;4.442;2022-08-14T12:52:39;28.70;36.00
43894;DHT22;29556;50.846;4.442;2022-08-14T12:55:13;28.80;36.40
43894;DHT22;29556;50.846;4.442;2022-08-14T12:57:42;28.90;36.40
43894;DHT22;29556;50.846;4.442;2022-08-14T13:00:22;28.90;36.80
43894;DHT22;29556;50.846;4.442;2022-08-14T13:02:51;28.90;36.40
43894;DHT22;29556;50.846;4.442;2022-08-14T13:05:32;28.90;35.50
43894;DHT22;29556;50.846;4.442;2022-08-14T13:08:08;29.00;36.50
43894;DHT22;29556;50.846;4.442;2022-08-14T13:10:34;29.10;35.90
43894;DHT22;29556;50.846;4.442;2022-08-14T13:13:01;29.20;35.90
43894;DHT22;29556;50.846;4.442;2022-08-14T13:15:27;29.20;35.90
43894;DHT22;29556;50.846;4.442;2022-08-14T13:17:54;29.30;36.10
43894;DHT22;29556;50.846;4.442;2022-08-14T13:20:23;29.30;36.40
43894;DHT22;29556;50.846;4.442;2022-08-14T13:22:51;29.30;36.50
43894;DHT22;29556;50.846;4.442;2022-08-14T13:25:21;29.40;36.60
43894;DHT22;29556;50.846;4.442;2022-08-14T13:27:51;29.40;37.10
43894;DHT22;29556;50.846;4.442;2022-08-14T13:30:22;29.40;36.50
43894;DHT22;29556;50.846;4.442;2022-08-14T13:32:57;29.50;36.40
43894;DHT22;29556;50.846;4.442;2022-08-14T13:35:31;29.50;36.60
43894;DHT22;29556;50.846;4.442;2022-08-14T13:38:02;29.50;36.90
43894;DHT22;29556;50.846;4.442;2022-08-14T13:40:52;29.50;36.20
43894;DHT22;29556;50.846;4.442;2022-08-14T13:43:36;29.60;36.70
43894;DHT22;29556;50.846;4.442;2022-08-14T13:46:05;29.60;36.70
43894;DHT22;29556;50.846;4.442;2022-08-14T13:48:31;29.60;37.50
43894;DHT22;29556;50.846;4.442;2022-08-14T13:51:06;29.60;37.90
43894;DHT22;29556;50.846;4.442;2022-08-14T13:53:58;29.70;38.50
43894;DHT22;29556;50.846;4.442;2022-08-14T13:56:32;29.70;38.50
43894;DHT22;29556;50.846;4.442;2022-08-14T13:59:03;29.50;36.90
43894;DHT22;29556;50.846;4.442;2022-08-14T14:01:37;29.40;35.40
43894;DHT22;29556;50.846;4.442;2022-08-14T14:04:04;29.50;36.30
43894;DHT22;29556;50.846;4.442;2022-08-14T14:06:36;29.70;36.80
43894;DHT22;29556;50.846;4.442;2022-08-14T14:09:10;29.70;36.70
43894;DHT22;29556;50.846;4.442;2022-08-14T14:11:37;29.90;37.40
43894;DHT22;29556;50.846;4.442;2022-08-14T14:14:03;30.10;37.20
43894;DHT22;29556;50.846;4.442;2022-08-14T14:16:29;30.10;37.40
43894;DHT22;29556;50.846;4.442;2022-08-14T14:18:55;30.20;37.60
43894;DHT22;29556;50.846;4.442;2022-08-14T14:21:26;30.20;36.80
43894;DHT22;29556;50.846;4.442;2022-08-14T14:23:52;30.30;37.10
43894;DHT22;29556;50.846;4.442;2022-08-14T14:26:24;30.30;36.80
43894;DHT22;29556;50.846;4.442;2022-08-14T14:28:55;30.30;35.60
43894;DHT22;29556;50.846;4.442;2022-08-14T14:31:23;30.30;36.50
43894;DHT22;29556;50.846;4.442;2022-08-14T14:33:59;30.50;36.40
43894;DHT22;29556;50.846;4.442;2022-08-14T14:36:42;30.60;35.00
43894;DHT22;29556;50.846;4.442;2022-08-14T14:39:15;30.60;35.40
43894;DHT22;29556;50.846;4.442;2022-08-14T14:41:42;30.70;35.60
43894;DHT22;29556;50.846;4.442;2022-08-14T14:44:22;30.70;35.00
43894;DHT22;29556;50.846;4.442;2022-08-14T14:46:48;30.80;35.70
43894;DHT22;29556;50.846;4.442;2022-08-14T14:49:17;30.80;36.30
43894;DHT22;29556;50.846;4.442;2022-08-14T14:51:44;30.90;36.20
43894;DHT22;29556;50.846;4.442;2022-08-14T14:54:12;30.90;36.60
43894;DHT22;29556;50.846;4.442;2022-08-14T14:56:40;30.90;36.10
43894;DHT22;29556;50.846;4.442;2022-08-14T14:59:06;31.10;36.50
43894;DHT22;29556;50.846;4.442;2022-08-14T15:01:36;30.90;34.40
43894;DHT22;29556;50.846;4.442;2022-08-14T15:04:03;31.10;35.60
43894;DHT22;29556;50.846;4.442;2022-08-14T15:06:31;31.10;36.20
43894;DHT22;29556;50.846;4.442;2022-08-14T15:08:57;31.20;36.80
43894;DHT22;29556;50.846;4.442;2022-08-14T15:11:23;31.10;37.00
43894;DHT22;29556;50.846;4.442;2022-08-14T15:13:50;31.10;37.70
43894;DHT22;29556;50.846;4.442;2022-08-14T15:16:16;31.10;38.10
43894;DHT22;29556;50.846;4.442;2022-08-14T15:18:43;31.10;38.70
43894;DHT22;29556;50.846;4.442;2022-08-14T15:21:13;31.00;38.80
43894;DHT22;29556;50.846;4.442;2022-08-14T15:23:42;31.00;38.40
43894;DHT22;29556;50.846;4.442;2022-08-14T15:26:13;30.90;38.70
43894;DHT22;29556;50.846;4.442;2022-08-14T15:28:40;30.90;39.20
43894;DHT22;29556;50.846;4.442;2022-08-14T15:31:06;30.80;39.60
43894;DHT22;29556;50.846;4.442;2022-08-14T15:33:32;30.80;40.00
43894;DHT22;29556;50.846;4.442;2022-08-14T15:36:16;30.70;40.30
43894;DHT22;29556;50.846;4.442;2022-08-14T15:38:42;30.70;40.90
43894;DHT22;29556;50.846;4.442;2022-08-14T15:41:10;30.60;41.10
43894;DHT22;29556;50.846;4.442;2022-08-14T15:43:35;30.50;41.10
43894;DHT22;29556;50.846;4.442;2022-08-14T15:46:04;30.50;41.60
43894;DHT22;29556;50.846;4.442;2022-08-14T15:48:33;30.50;41.40
43894;DHT22;29556;50.846;4.442;2022-08-14T15:51:01;30.40;40.50
43894;DHT22;29556;50.846;4.442;2022-08-14T15:53:28;30.30;40.60
43894;DHT22;29556;50.846;4.442;2022-08-14T15:55:55;30.30;40.80
43894;DHT22;29556;50.846;4.442;2022-08-14T15:58:23;30.30;41.30
43894;DHT22;29556;50.846;4.442;2022-08-14T16:00:50;30.30;41.60
43894;DHT22;29556;50.846;4.442;2022-08-14T16:03:37;30.20;42.10
43894;DHT22;29556;50.846;4.442;2022-08-14T16:06:10;30.10;42.50
43894;DHT22;29556;50.846;4.442;2022-08-14T16:08:37;30.10;42.80
43894;DHT22;29556;50.846;4.442;2022-08-14T16:11:06;30.00;42.90
43894;DHT22;29556;50.846;4.442;2022-08-14T16:13:47;30.00;43.20